sensor_id;sensor_type;location;lat;lon;timestamp;pressure;altitude;pressure_sealevel;temperature
64175;BMP280;50469;50.438;-119.202;2023-07-30T00:00:48;96710.22;;;34.41
64175;BMP280;50469;50.438;-119.202;2023-07-30T00:03:16;96703.47;;;34.44
64175;BMP280;50469;50.438;-119.202;2023-07-30T00:05:55;96698.22;;;34.29
64175;BMP280;50469;50.438;-119.202;2023-07-30T00:08:23;96706.72;;;34.50
64175;BMP280;50469;50.438;-119.202;2023-07-30T00:10:51;96701.44;;;34.44
64175;BMP280;50469;50.438;-119.202;2023-07-30T00:13:19;96684.44;;;34.11
64175;BMP280;50469;50.438;-119.202;2023-07-30T00:15:48;96686.94;;;34.07
64175;BMP280;50469;50.438;-119.202;2023-07-30T00:18:17;96686.78;;;33.96
64175;BMP280;50469;50.438;-119.202;2023-07-30T00:20:45;96686.59;;;33.84
64175;BMP280;50469;50.438;-119.202;2023-07-30T00:23:16;96684.22;;;33.80
64175;BMP280;50469;50.438;-119.202;2023-07-30T00:25:44;96684.69;;;33.86
64175;BMP280;50469;50.438;-119.202;2023-07-30T00:28:14;96674.22;;;33.67
64175;BMP280;50469;50.438;-119.202;2023-07-30T00:30:42;96678.66;;;33.80
64175;BMP280;50469;50.438;-119.202;2023-07-30T00:33:10;96677.56;;;33.56
64175;BMP280;50469;50.438;-119.202;2023-07-30T00:35:39;96675.09;;;33.51
64175;BMP280;50469;50.438;-119.202;2023-07-30T00:38:07;96672.19;;;33.58
64175;BMP280;50469;50.438;-119.202;2023-07-30T00:40:44;96673.03;;;33.51
64175;BMP280;50469;50.438;-119.202;2023-07-30T00:43:12;96665.41;;;33.52
64175;BMP280;50469;50.438;-119.202;2023-07-30T00:45:43;96662.47;;;33.40
64175;BMP280;50469;50.438;-119.202;2023-07-30T00:48:16;96665.16;;;33.57
64175;BMP280;50469;50.438;-119.202;2023-07-30T00:50:47;96656.09;;;33.57
64175;BMP280;50469;50.438;-119.202;2023-07-30T00:53:15;96662.31;;;33.75
64175;BMP280;50469;50.438;-119.202;2023-07-30T00:55:44;96651.34;;;33.86
64175;BMP280;50469;50.438;-119.202;2023-07-30T00:58:12;96640.38;;;33.88
64175;BMP280;50469;50.438;-119.202;2023-07-30T01:00:43;96641.56;;;34.24
64175;BMP280;50469;50.438;-119.202;2023-07-30T01:03:11;96642.16;;;34.52
64175;BMP280;50469;50.438;-119.202;2023-07-30T01:05:39;96632.31;;;34.79
64175;BMP280;50469;50.438;-119.202;2023-07-30T01:08:07;96636.75;;;34.54
64175;BMP280;50469;50.438;-119.202;2023-07-30T01:10:36;96629.44;;;34.58
64175;BMP280;50469;50.438;-119.202;2023-07-30T01:13:09;96622.69;;;34.42
64175;BMP280;50469;50.438;-119.202;2023-07-30T01:15:38;96620.25;;;34.46
64175;BMP280;50469;50.438;-119.202;2023-07-30T01:18:07;96619.38;;;34.34
64175;BMP280;50469;50.438;-119.202;2023-07-30T01:20:38;96620.09;;;34.25
64175;BMP280;50469;50.438;-119.202;2023-07-30T01:23:09;96611.78;;;34.15
64175;BMP280;50469;50.438;-119.202;2023-07-30T01:25:41;96608.84;;;34.13
64175;BMP280;50469;50.438;-119.202;2023-07-30T01:28:16;96604.75;;;34.24
64175;BMP280;50469;50.438;-119.202;2023-07-30T01:30:48;96612.50;;;34.15
64175;BMP280;50469;50.438;-119.202;2023-07-30T01:33:17;96610.44;;;34.06
64175;BMP280;50469;50.438;-119.202;2023-07-30T01:35:45;96611.59;;;33.93
64175;BMP280;50469;50.438;-119.202;2023-07-30T01:38:13;96608.34;;;33.78
64175;BMP280;50469;50.438;-119.202;2023-07-30T01:40:42;96603.13;;;33.82
64175;BMP280;50469;50.438;-119.202;2023-07-30T01:43:10;96603.06;;;33.62
64175;BMP280;50469;50.438;-119.202;2023-07-30T01:45:38;96613.44;;;33.62
64175;BMP280;50469;50.438;-119.202;2023-07-30T01:48:06;96608.47;;;33.60
64175;BMP280;50469;50.438;-119.202;2023-07-30T01:50:37;96603.94;;;33.65
64175;BMP280;50469;50.438;-119.202;2023-07-30T01:53:08;96602.00;;;33.48
64175;BMP280;50469;50.438;-119.202;2023-07-30T01:55:36;96604.19;;;33.50
64175;BMP280;50469;50.438;-119.202;2023-07-30T01:58:06;96610.47;;;33.41
64175;BMP280;50469;50.438;-119.202;2023-07-30T02:00:35;96603.56;;;33.32
64175;BMP280;50469;50.438;-119.202;2023-07-30T02:03:03;96604.97;;;33.23
64175;BMP280;50469;50.438;-119.202;2023-07-30T02:05:31;96609.47;;;33.09
64175;BMP280;50469;50.438;-119.202;2023-07-30T02:08:02;96612.09;;;33.07
64175;BMP280;50469;50.438;-119.202;2023-07-30T02:10:30;96611.75;;;33.03
64175;BMP280;50469;50.438;-119.202;2023-07-30T02:13:00;96605.34;;;33.00
64175;BMP280;50469;50.438;-119.202;2023-07-30T02:15:28;96605.06;;;32.79
64175;BMP280;50469;50.438;-119.202;2023-07-30T02:17:56;96607.88;;;32.62
64175;BMP280;50469;50.438;-119.202;2023-07-30T02:20:26;96607.81;;;32.52
64175;BMP280;50469;50.438;-119.202;2023-07-30T02:22:57;96609.63;;;32.40
64175;BMP280;50469;50.438;-119.202;2023-07-30T02:25:28;96615.66;;;32.29
64175;BMP280;50469;50.438;-119.202;2023-07-30T02:28:02;96613.84;;;32.23
64175;BMP280;50469;50.438;-119.202;2023-07-30T02:30:30;96613.59;;;32.12
64175;BMP280;50469;50.438;-119.202;2023-07-30T02:32:58;96621.00;;;31.92
64175;BMP280;50469;50.438;-119.202;2023-07-30T02:35:26;96611.34;;;31.76
64175;BMP280;50469;50.438;-119.202;2023-07-30T02:37:54;96625.56;;;31.55
64175;BMP280;50469;50.438;-119.202;2023-07-30T02:40:25;96619.66;;;31.26
64175;BMP280;50469;50.438;-119.202;2023-07-30T02:42:53;96626.06;;;30.96
64175;BMP280;50469;50.438;-119.202;2023-07-30T02:45:25;96625.66;;;30.67
64175;BMP280;50469;50.438;-119.202;2023-07-30T02:47:53;96622.25;;;30.35
64175;BMP280;50469;50.438;-119.202;2023-07-30T02:50:23;96627.03;;;30.27
64175;BMP280;50469;50.438;-119.202;2023-07-30T02:52:51;96624.31;;;30.12
64175;BMP280;50469;50.438;-119.202;2023-07-30T02:55:22;96624.72;;;29.93
64175;BMP280;50469;50.438;-119.202;2023-07-30T02:57:50;96635.94;;;29.88
64175;BMP280;50469;50.438;-119.202;2023-07-30T03:00:18;96624.53;;;29.83
64175;BMP280;50469;50.438;-119.202;2023-07-30T03:02:46;96619.72;;;29.76
64175;BMP280;50469;50.438;-119.202;2023-07-30T03:05:14;96625.25;;;30.07
64175;BMP280;50469;50.438;-119.202;2023-07-30T03:07:45;96622.78;;;30.42
64175;BMP280;50469;50.438;-119.202;2023-07-30T03:10:13;96629.25;;;30.21
64175;BMP280;50469;50.438;-119.202;2023-07-30T03:12:44;96624.69;;;30.01
64175;BMP280;50469;50.438;-119.202;2023-07-30T03:15:12;96633.72;;;29.78
64175;BMP280;50469;50.438;-119.202;2023-07-30T03:17:40;96635.34;;;29.51
64175;BMP280;50469;50.438;-119.202;2023-07-30T03:20:10;96641.53;;;29.21
64175;BMP280;50469;50.438;-119.202;2023-07-30T03:22:43;96643.25;;;28.88
64175;BMP280;50469;50.438;-119.202;2023-07-30T03:25:14;96635.63;;;28.73
64175;BMP280;50469;50.438;-119.202;2023-07-30T03:27:42;96635.22;;;28.69
64175;BMP280;50469;50.438;-119.202;2023-07-30T03:30:13;96642.91;;;28.63
64175;BMP280;50469;50.438;-119.202;2023-07-30T03:32:41;96647.53;;;28.11
64175;BMP280;50469;50.438;-119.202;2023-07-30T03:35:09;96641.81;;;28.09
64175;BMP280;50469;50.438;-119.202;2023-07-30T03:37:40;96647.66;;;28.05
64175;BMP280;50469;50.438;-119.202;2023-07-30T03:40:12;96647.66;;;28.05
64175;BMP280;50469;50.438;-119.202;2023-07-30T03:42:45;96656.50;;;28.04
64175;BMP280;50469;50.438;-119.202;2023-07-30T03:45:13;96660.63;;;27.97
64175;BMP280;50469;50.438;-119.202;2023-07-30T03:47:41;96659.50;;;27.92
64175;BMP280;50469;50.438;-119.202;2023-07-30T03:50:09;96668.34;;;27.78
64175;BMP280;50469;50.438;-119.202;2023-07-30T03:52:37;96665.91;;;27.74
64175;BMP280;50469;50.438;-119.202;2023-07-30T03:55:08;96672.47;;;27.50
64175;BMP280;50469;50.438;-119.202;2023-07-30T03:57:39;96680.50;;;27.48
64175;BMP280;50469;50.438;-119.202;2023-07-30T04:00:10;96687.28;;;27.47
64175;BMP280;50469;50.438;-119.202;2023-07-30T04:02:38;96696.88;;;27.54
64175;BMP280;50469;50.438;-119.202;2023-07-30T04:05:09;96701.50;;;27.59
64175;BMP280;50469;50.438;-119.202;2023-07-30T04:07:40;96708.56;;;27.67
64175;BMP280;50469;50.438;-119.202;2023-07-30T04:10:08;96720.31;;;27.68
64175;BMP280;50469;50.438;-119.202;2023-07-30T04:12:39;96709.75;;;27.59
64175;BMP280;50469;50.438;-119.202;2023-07-30T04:15:07;96711.94;;;27.74
64175;BMP280;50469;50.438;-119.202;2023-07-30T04:17:36;96720.97;;;27.61
64175;BMP280;50469;50.438;-119.202;2023-07-30T04:20:05;96722.06;;;27.44
64175;BMP280;50469;50.438;-119.202;2023-07-30T04:22:36;96732.88;;;27.29
64175;BMP280;50469;50.438;-119.202;2023-07-30T04:25:08;96731.94;;;27.13
64175;BMP280;50469;50.438;-119.202;2023-07-30T04:27:36;96741.75;;;27.09
64175;BMP280;50469;50.438;-119.202;2023-07-30T04:30:05;96739.66;;;27.15
64175;BMP280;50469;50.438;-119.202;2023-07-30T04:32:36;96744.19;;;27.12
64175;BMP280;50469;50.438;-119.202;2023-07-30T04:35:05;96749.91;;;27.14
64175;BMP280;50469;50.438;-119.202;2023-07-30T04:37:33;96752.34;;;27.05
64175;BMP280;50469;50.438;-119.202;2023-07-30T04:40:02;96744.50;;;26.96
64175;BMP280;50469;50.438;-119.202;2023-07-30T04:42:30;96751.28;;;27.21
64175;BMP280;50469;50.438;-119.202;2023-07-30T04:44:59;96762.25;;;27.34
64175;BMP280;50469;50.438;-119.202;2023-07-30T04:47:27;96764.91;;;27.13
64175;BMP280;50469;50.438;-119.202;2023-07-30T04:50:00;96765.13;;;27.15
64175;BMP280;50469;50.438;-119.202;2023-07-30T04:52:30;96769.03;;;27.07
64175;BMP280;50469;50.438;-119.202;2023-07-30T04:54:58;96774.53;;;26.93
64175;BMP280;50469;50.438;-119.202;2023-07-30T04:57:26;96788.88;;;26.86
64175;BMP280;50469;50.438;-119.202;2023-07-30T04:59:54;96785.91;;;26.84
64175;BMP280;50469;50.438;-119.202;2023-07-30T05:02:23;96789.81;;;26.76
64175;BMP280;50469;50.438;-119.202;2023-07-30T05:04:51;96790.19;;;26.66
64175;BMP280;50469;50.438;-119.202;2023-07-30T05:07:21;96789.44;;;26.53
64175;BMP280;50469;50.438;-119.202;2023-07-30T05:09:49;96798.72;;;26.50
64175;BMP280;50469;50.438;-119.202;2023-07-30T05:12:17;96805.56;;;26.43
64175;BMP280;50469;50.438;-119.202;2023-07-30T05:14:46;96811.56;;;26.41
64175;BMP280;50469;50.438;-119.202;2023-07-30T05:17:14;96805.63;;;26.37
64175;BMP280;50469;50.438;-119.202;2023-07-30T05:19:42;96814.50;;;26.11
64175;BMP280;50469;50.438;-119.202;2023-07-30T05:22:10;96831.44;;;25.91
64175;BMP280;50469;50.438;-119.202;2023-07-30T05:24:38;96830.38;;;26.00
64175;BMP280;50469;50.438;-119.202;2023-07-30T05:27:06;96821.47;;;26.12
64175;BMP280;50469;50.438;-119.202;2023-07-30T05:29:34;96838.09;;;26.01
64175;BMP280;50469;50.438;-119.202;2023-07-30T05:32:02;96833.25;;;26.07
64175;BMP280;50469;50.438;-119.202;2023-07-30T05:34:31;96842.44;;;26.10
64175;BMP280;50469;50.438;-119.202;2023-07-30T05:36:59;96840.44;;;26.10
64175;BMP280;50469;50.438;-119.202;2023-07-30T05:39:29;96841.72;;;26.09
64175;BMP280;50469;50.438;-119.202;2023-07-30T05:41:57;96844.50;;;26.04
64175;BMP280;50469;50.438;-119.202;2023-07-30T05:44:25;96852.44;;;25.88
64175;BMP280;50469;50.438;-119.202;2023-07-30T05:46:53;96861.66;;;25.67
64175;BMP280;50469;50.438;-119.202;2023-07-30T05:49:24;96870.13;;;25.69
64175;BMP280;50469;50.438;-119.202;2023-07-30T05:51:53;96873.03;;;25.52
64175;BMP280;50469;50.438;-119.202;2023-07-30T05:54:21;96872.97;;;25.57
64175;BMP280;50469;50.438;-119.202;2023-07-30T05:56:51;96876.06;;;25.48
64175;BMP280;50469;50.438;-119.202;2023-07-30T05:59:23;96885.28;;;25.51
64175;BMP280;50469;50.438;-119.202;2023-07-30T06:01:51;96879.78;;;25.51
64175;BMP280;50469;50.438;-119.202;2023-07-30T06:04:19;96891.94;;;25.55
64175;BMP280;50469;50.438;-119.202;2023-07-30T06:06:50;96895.38;;;25.37
64175;BMP280;50469;50.438;-119.202;2023-07-30T06:09:21;96901.75;;;25.15
64175;BMP280;50469;50.438;-119.202;2023-07-30T06:11:54;96908.41;;;25.25
64175;BMP280;50469;50.438;-119.202;2023-07-30T06:14:23;96911.69;;;25.18
64175;BMP280;50469;50.438;-119.202;2023-07-30T06:16:52;96923.03;;;24.98
64175;BMP280;50469;50.438;-119.202;2023-07-30T06:19:26;96921.41;;;24.83
64175;BMP280;50469;50.438;-119.202;2023-07-30T06:21:56;96930.31;;;24.54
64175;BMP280;50469;50.438;-119.202;2023-07-30T06:24:24;96931.88;;;24.27
64175;BMP280;50469;50.438;-119.202;2023-07-30T06:26:55;96932.19;;;24.12
64175;BMP280;50469;50.438;-119.202;2023-07-30T06:29:23;96938.44;;;24.07
64175;BMP280;50469;50.438;-119.202;2023-07-30T06:31:51;96940.34;;;24.23
64175;BMP280;50469;50.438;-119.202;2023-07-30T06:34:19;96939.41;;;25.09
64175;BMP280;50469;50.438;-119.202;2023-07-30T06:36:47;96940.72;;;24.61
64175;BMP280;50469;50.438;-119.202;2023-07-30T06:39:18;96938.03;;;24.44
64175;BMP280;50469;50.438;-119.202;2023-07-30T06:41:51;96951.72;;;24.44
64175;BMP280;50469;50.438;-119.202;2023-07-30T06:44:22;96943.13;;;24.18
64175;BMP280;50469;50.438;-119.202;2023-07-30T06:46:50;96955.28;;;24.22
64175;BMP280;50469;50.438;-119.202;2023-07-30T06:49:21;96956.25;;;24.36
64175;BMP280;50469;50.438;-119.202;2023-07-30T06:51:49;96958.34;;;24.66
64175;BMP280;50469;50.438;-119.202;2023-07-30T06:54:23;96959.94;;;24.44
64175;BMP280;50469;50.438;-119.202;2023-07-30T06:56:51;96963.53;;;24.17
64175;BMP280;50469;50.438;-119.202;2023-07-30T06:59:21;96957.34;;;23.99
64175;BMP280;50469;50.438;-119.202;2023-07-30T07:01:49;96958.56;;;23.98
64175;BMP280;50469;50.438;-119.202;2023-07-30T07:04:20;96958.63;;;23.81
64175;BMP280;50469;50.438;-119.202;2023-07-30T07:06:51;96965.81;;;23.79
64175;BMP280;50469;50.438;-119.202;2023-07-30T07:09:22;96965.84;;;23.73
64175;BMP280;50469;50.438;-119.202;2023-07-30T07:11:53;96970.03;;;23.80
64175;BMP280;50469;50.438;-119.202;2023-07-30T07:14:21;96971.03;;;23.77
64175;BMP280;50469;50.438;-119.202;2023-07-30T07:16:49;96976.03;;;23.67
64175;BMP280;50469;50.438;-119.202;2023-07-30T07:19:20;96975.50;;;23.69
64175;BMP280;50469;50.438;-119.202;2023-07-30T07:21:48;96964.59;;;23.63
64175;BMP280;50469;50.438;-119.202;2023-07-30T07:24:16;96973.78;;;23.54
64175;BMP280;50469;50.438;-119.202;2023-07-30T07:26:47;96976.28;;;23.58
64175;BMP280;50469;50.438;-119.202;2023-07-30T07:29:15;96977.16;;;22.87
64175;BMP280;50469;50.438;-119.202;2023-07-30T07:31:45;96976.78;;;22.57
64175;BMP280;50469;50.438;-119.202;2023-07-30T07:34:18;96984.63;;;22.38
64175;BMP280;50469;50.438;-119.202;2023-07-30T07:36:46;96981.25;;;22.55
64175;BMP280;50469;50.438;-119.202;2023-07-30T07:39:14;96986.97;;;22.62
64175;BMP280;50469;50.438;-119.202;2023-07-30T07:41:44;96992.47;;;22.68
64175;BMP280;50469;50.438;-119.202;2023-07-30T07:44:15;96990.56;;;22.91
64175;BMP280;50469;50.438;-119.202;2023-07-30T07:49:11;96995.53;;;22.38
64175;BMP280;50469;50.438;-119.202;2023-07-30T07:51:39;96994.28;;;21.97
64175;BMP280;50469;50.438;-119.202;2023-07-30T07:54:07;96995.88;;;22.57
64175;BMP280;50469;50.438;-119.202;2023-07-30T07:56:37;96997.50;;;22.92
64175;BMP280;50469;50.438;-119.202;2023-07-30T07:59:08;96990.81;;;22.93
64175;BMP280;50469;50.438;-119.202;2023-07-30T08:01:36;96999.19;;;22.78
64175;BMP280;50469;50.438;-119.202;2023-07-30T08:04:05;96999.66;;;22.23
64175;BMP280;50469;50.438;-119.202;2023-07-30T08:06:36;97016.44;;;21.78
64175;BMP280;50469;50.438;-119.202;2023-07-30T08:09:04;97012.97;;;21.05
64175;BMP280;50469;50.438;-119.202;2023-07-30T08:11:35;97011.69;;;21.01
64175;BMP280;50469;50.438;-119.202;2023-07-30T08:14:06;97029.00;;;20.62
64175;BMP280;50469;50.438;-119.202;2023-07-30T08:16:39;97011.88;;;20.56
64175;BMP280;50469;50.438;-119.202;2023-07-30T08:19:10;97021.78;;;20.95
64175;BMP280;50469;50.438;-119.202;2023-07-30T08:21:38;97018.13;;;20.62
64175;BMP280;50469;50.438;-119.202;2023-07-30T08:24:06;97027.34;;;20.15
64175;BMP280;50469;50.438;-119.202;2023-07-30T08:26:35;97030.66;;;20.39
64175;BMP280;50469;50.438;-119.202;2023-07-30T08:29:05;97025.81;;;20.43
64175;BMP280;50469;50.438;-119.202;2023-07-30T08:31:33;97026.56;;;20.29
64175;BMP280;50469;50.438;-119.202;2023-07-30T08:34:02;97034.81;;;20.35
64175;BMP280;50469;50.438;-119.202;2023-07-30T08:36:30;97038.53;;;20.37
64175;BMP280;50469;50.438;-119.202;2023-07-30T08:38:58;97032.69;;;20.09
64175;BMP280;50469;50.438;-119.202;2023-07-30T08:41:29;97036.41;;;20.12
64175;BMP280;50469;50.438;-119.202;2023-07-30T08:43:57;97041.41;;;19.99
64175;BMP280;50469;50.438;-119.202;2023-07-30T08:46:28;97040.19;;;19.70
64175;BMP280;50469;50.438;-119.202;2023-07-30T08:48:56;97043.50;;;19.89
64175;BMP280;50469;50.438;-119.202;2023-07-30T08:51:25;97040.31;;;19.52
64175;BMP280;50469;50.438;-119.202;2023-07-30T08:53:57;97037.09;;;19.62
64175;BMP280;50469;50.438;-119.202;2023-07-30T08:56:30;97044.50;;;19.38
64175;BMP280;50469;50.438;-119.202;2023-07-30T08:59:02;97046.41;;;19.08
64175;BMP280;50469;50.438;-119.202;2023-07-30T09:01:34;97044.06;;;19.39
64175;BMP280;50469;50.438;-119.202;2023-07-30T09:04:06;97045.41;;;19.44
64175;BMP280;50469;50.438;-119.202;2023-07-30T09:06:39;97058.06;;;19.62
64175;BMP280;50469;50.438;-119.202;2023-07-30T09:09:12;97054.19;;;20.42
64175;BMP280;50469;50.438;-119.202;2023-07-30T09:11:41;97052.16;;;21.34
64175;BMP280;50469;50.438;-119.202;2023-07-30T09:14:09;97045.31;;;21.64
64175;BMP280;50469;50.438;-119.202;2023-07-30T09:16:37;97046.38;;;21.06
64175;BMP280;50469;50.438;-119.202;2023-07-30T09:19:06;97048.66;;;20.52
64175;BMP280;50469;50.438;-119.202;2023-07-30T09:21:34;97058.19;;;20.27
64175;BMP280;50469;50.438;-119.202;2023-07-30T09:24:03;97052.91;;;19.79
64175;BMP280;50469;50.438;-119.202;2023-07-30T09:26:46;97060.16;;;19.96
64175;BMP280;50469;50.438;-119.202;2023-07-30T09:29:14;97058.94;;;20.12
64175;BMP280;50469;50.438;-119.202;2023-07-30T09:31:53;97056.00;;;20.16
64175;BMP280;50469;50.438;-119.202;2023-07-30T09:34:23;97054.16;;;20.07
64175;BMP280;50469;50.438;-119.202;2023-07-30T09:36:55;97061.94;;;20.14
64175;BMP280;50469;50.438;-119.202;2023-07-30T09:39:25;97060.53;;;20.19
64175;BMP280;50469;50.438;-119.202;2023-07-30T09:42:00;97053.47;;;20.27
64175;BMP280;50469;50.438;-119.202;2023-07-30T09:44:28;97052.25;;;20.28
64175;BMP280;50469;50.438;-119.202;2023-07-30T09:46:56;97059.63;;;20.42
64175;BMP280;50469;50.438;-119.202;2023-07-30T09:49:24;97053.69;;;20.59
64175;BMP280;50469;50.438;-119.202;2023-07-30T09:51:53;97048.88;;;20.68
64175;BMP280;50469;50.438;-119.202;2023-07-30T09:54:22;97049.16;;;20.71
64175;BMP280;50469;50.438;-119.202;2023-07-30T09:56:50;97042.16;;;20.64
64175;BMP280;50469;50.438;-119.202;2023-07-30T09:59:18;97050.50;;;20.60
64175;BMP280;50469;50.438;-119.202;2023-07-30T10:01:49;97050.31;;;20.64
64175;BMP280;50469;50.438;-119.202;2023-07-30T10:04:20;97053.31;;;20.66
64175;BMP280;50469;50.438;-119.202;2023-07-30T10:09:17;97036.25;;;20.86
64175;BMP280;50469;50.438;-119.202;2023-07-30T10:11:48;97040.50;;;20.87
64175;BMP280;50469;50.438;-119.202;2023-07-30T10:14:21;97041.25;;;20.87
64175;BMP280;50469;50.438;-119.202;2023-07-30T10:16:53;97048.47;;;20.90
64175;BMP280;50469;50.438;-119.202;2023-07-30T10:19:23;97048.38;;;20.85
64175;BMP280;50469;50.438;-119.202;2023-07-30T10:22:38;97054.28;;;20.83
64175;BMP280;50469;50.438;-119.202;2023-07-30T10:27:24;97050.88;;;20.88
64175;BMP280;50469;50.438;-119.202;2023-07-30T10:30:16;97051.28;;;20.81
64175;BMP280;50469;50.438;-119.202;2023-07-30T10:35:39;97059.84;;;20.74
64175;BMP280;50469;50.438;-119.202;2023-07-30T10:38:28;97059.75;;;20.68
64175;BMP280;50469;50.438;-119.202;2023-07-30T10:41:15;97063.72;;;20.67
64175;BMP280;50469;50.438;-119.202;2023-07-30T10:43:47;97064.38;;;20.62
64175;BMP280;50469;50.438;-119.202;2023-07-30T10:46:19;97072.25;;;20.60
64175;BMP280;50469;50.438;-119.202;2023-07-30T10:48:48;97069.50;;;20.40
64175;BMP280;50469;50.438;-119.202;2023-07-30T10:51:19;97073.25;;;20.57
64175;BMP280;50469;50.438;-119.202;2023-07-30T10:53:48;97065.63;;;20.61
64175;BMP280;50469;50.438;-119.202;2023-07-30T10:56:21;97069.91;;;20.68
64175;BMP280;50469;50.438;-119.202;2023-07-30T10:58:52;97070.19;;;20.70
64175;BMP280;50469;50.438;-119.202;2023-07-30T11:01:24;97077.16;;;20.56
64175;BMP280;50469;50.438;-119.202;2023-07-30T11:03:55;97081.13;;;20.40
64175;BMP280;50469;50.438;-119.202;2023-07-30T11:06:25;97078.88;;;20.24
64175;BMP280;50469;50.438;-119.202;2023-07-30T11:08:57;97077.38;;;20.08
64175;BMP280;50469;50.438;-119.202;2023-07-30T11:11:27;97082.75;;;20.03
64175;BMP280;50469;50.438;-119.202;2023-07-30T11:13:55;97081.59;;;19.94
64175;BMP280;50469;50.438;-119.202;2023-07-30T11:16:24;97091.63;;;19.88
64175;BMP280;50469;50.438;-119.202;2023-07-30T11:18:53;97091.53;;;19.83
64175;BMP280;50469;50.438;-119.202;2023-07-30T11:21:24;97095.47;;;19.82
64175;BMP280;50469;50.438;-119.202;2023-07-30T11:23:54;97092.53;;;19.70
64175;BMP280;50469;50.438;-119.202;2023-07-30T11:26:26;97098.13;;;19.67
64175;BMP280;50469;50.438;-119.202;2023-07-30T11:28:54;97097.78;;;19.74
64175;BMP280;50469;50.438;-119.202;2023-07-30T11:31:22;97104.72;;;19.75
64175;BMP280;50469;50.438;-119.202;2023-07-30T11:33:53;97104.81;;;19.66
64175;BMP280;50469;50.438;-119.202;2023-07-30T11:36:22;97110.50;;;19.68
64175;BMP280;50469;50.438;-119.202;2023-07-30T11:38:52;97107.41;;;19.60
64175;BMP280;50469;50.438;-119.202;2023-07-30T11:41:23;97108.28;;;19.66
64175;BMP280;50469;50.438;-119.202;2023-07-30T11:43:52;97106.47;;;19.63
64175;BMP280;50469;50.438;-119.202;2023-07-30T11:46:20;97111.00;;;19.66
64175;BMP280;50469;50.438;-119.202;2023-07-30T11:48:52;97109.50;;;19.65
64175;BMP280;50469;50.438;-119.202;2023-07-30T11:51:24;97111.09;;;19.72
64175;BMP280;50469;50.438;-119.202;2023-07-30T11:54:00;97111.50;;;19.80
64175;BMP280;50469;50.438;-119.202;2023-07-30T11:56:32;97126.53;;;19.81
64175;BMP280;50469;50.438;-119.202;2023-07-30T11:59:07;97128.13;;;19.58
64175;BMP280;50469;50.438;-119.202;2023-07-30T12:01:39;97127.81;;;18.74
64175;BMP280;50469;50.438;-119.202;2023-07-30T12:04:12;97131.72;;;18.03
64175;BMP280;50469;50.438;-119.202;2023-07-30T12:06:42;97129.16;;;18.00
64175;BMP280;50469;50.438;-119.202;2023-07-30T12:09:23;97131.56;;;17.98
64175;BMP280;50469;50.438;-119.202;2023-07-30T12:11:56;97132.88;;;17.56
64175;BMP280;50469;50.438;-119.202;2023-07-30T12:14:29;97132.16;;;17.83
64175;BMP280;50469;50.438;-119.202;2023-07-30T12:17:09;97125.38;;;18.16
64175;BMP280;50469;50.438;-119.202;2023-07-30T12:19:38;97124.31;;;18.22
64175;BMP280;50469;50.438;-119.202;2023-07-30T12:22:06;97135.91;;;17.09
64175;BMP280;50469;50.438;-119.202;2023-07-30T12:24:34;97141.88;;;17.44
64175;BMP280;50469;50.438;-119.202;2023-07-30T12:27:02;97139.66;;;17.61
64175;BMP280;50469;50.438;-119.202;2023-07-30T12:29:30;97138.38;;;17.34
64175;BMP280;50469;50.438;-119.202;2023-07-30T12:31:58;97141.75;;;17.48
64175;BMP280;50469;50.438;-119.202;2023-07-30T12:34:35;97145.22;;;17.76
64175;BMP280;50469;50.438;-119.202;2023-07-30T12:37:03;97155.56;;;16.69
64175;BMP280;50469;50.438;-119.202;2023-07-30T12:39:31;97156.94;;;16.74
64175;BMP280;50469;50.438;-119.202;2023-07-30T12:41:59;97160.56;;;17.11
64175;BMP280;50469;50.438;-119.202;2023-07-30T12:44:32;97157.72;;;17.14
64175;BMP280;50469;50.438;-119.202;2023-07-30T12:47:00;97156.72;;;17.30
64175;BMP280;50469;50.438;-119.202;2023-07-30T12:49:28;97158.84;;;16.95
64175;BMP280;50469;50.438;-119.202;2023-07-30T12:51:59;97158.28;;;17.00
64175;BMP280;50469;50.438;-119.202;2023-07-30T12:54:27;97153.75;;;17.38
64175;BMP280;50469;50.438;-119.202;2023-07-30T12:56:58;97158.38;;;16.87
64175;BMP280;50469;50.438;-119.202;2023-07-30T12:59:26;97166.19;;;16.63
64175;BMP280;50469;50.438;-119.202;2023-07-30T13:01:54;97169.75;;;17.13
64175;BMP280;50469;50.438;-119.202;2023-07-30T13:04:27;97176.91;;;17.39
64175;BMP280;50469;50.438;-119.202;2023-07-30T13:06:57;97181.75;;;17.44
64175;BMP280;50469;50.438;-119.202;2023-07-30T13:09:28;97170.84;;;17.34
64175;BMP280;50469;50.438;-119.202;2023-07-30T13:11:56;97168.84;;;17.57
64175;BMP280;50469;50.438;-119.202;2023-07-30T13:14:27;97163.47;;;18.03
64175;BMP280;50469;50.438;-119.202;2023-07-30T13:16:55;97161.19;;;18.90
64175;BMP280;50469;50.438;-119.202;2023-07-30T13:19:23;97184.31;;;20.94
64175;BMP280;50469;50.438;-119.202;2023-07-30T13:21:51;97190.22;;;23.58
64175;BMP280;50469;50.438;-119.202;2023-07-30T13:24:22;97185.09;;;24.73
64175;BMP280;50469;50.438;-119.202;2023-07-30T13:26:50;97189.31;;;25.96
64175;BMP280;50469;50.438;-119.202;2023-07-30T13:29:18;97190.00;;;25.13
64175;BMP280;50469;50.438;-119.202;2023-07-30T13:31:49;97190.66;;;26.43
64175;BMP280;50469;50.438;-119.202;2023-07-30T13:34:20;97185.53;;;26.83
64175;BMP280;50469;50.438;-119.202;2023-07-30T13:36:48;97188.53;;;27.04
64175;BMP280;50469;50.438;-119.202;2023-07-30T13:39:16;97192.38;;;28.22
64175;BMP280;50469;50.438;-119.202;2023-07-30T13:41:44;97193.50;;;28.72
64175;BMP280;50469;50.438;-119.202;2023-07-30T13:44:12;97183.72;;;28.58
64175;BMP280;50469;50.438;-119.202;2023-07-30T13:46:40;97175.41;;;24.60
64175;BMP280;50469;50.438;-119.202;2023-07-30T13:49:09;97217.19;;;27.14
64175;BMP280;50469;50.438;-119.202;2023-07-30T13:51:39;97185.03;;;23.12
64175;BMP280;50469;50.438;-119.202;2023-07-30T13:54:07;97215.44;;;24.13
64175;BMP280;50469;50.438;-119.202;2023-07-30T13:56:35;97194.34;;;20.88